Time;durP1;ratioP1;P1;durP2;ratioP2;P2;SDS_P1;SDS_P2;PMS_P1;PMS_P2;Temp;Humidity;BMP_temperature;BMP_pressure;BME280_temperature;BME280_humidity;BME280_pressure;Samples;Min_cycle;Max_cycle;Signal;HPM_P1;HPM_P2
2022/08/09 00:01:18;;;;;;;;;;;14.20;99.90;;;;;;5136987;27;20370;-75
2022/08/09 00:03:44;;;;;;;;;;;14.20;99.90;;;;;;5155247;27;19930;-75
2022/08/09 00:06:10;;;;;;;;;;;14.10;99.90;;;;;;5155398;27;19958;-75
2022/08/09 00:08:35;;;;;;;;;;;14.00;99.90;;;;;;5155347;27;19946;-75
2022/08/09 00:11:01;;;;;;;;;;;14.00;99.90;;;;;;5137155;27;20285;-74
2022/08/09 00:13:27;;;;;;;;;;;14.00;99.90;;;;;;5155556;27;20388;-74
2022/08/09 00:15:52;;;;;;;;;;;14.10;99.90;;;;;;5155210;27;19970;-75
2022/08/09 00:18:18;;;;;;;;;;;14.10;99.90;;;;;;5137246;27;20374;-74
2022/08/09 00:20:44;;;;;;;;;;;14.00;99.90;;;;;;5155113;27;19923;-74
2022/08/09 00:23:09;;;;;;;;;;;14.10;99.90;;;;;;5155395;27;20438;-74
2022/08/09 00:25:35;;;;;;;;;;;14.10;99.90;;;;;;5155230;27;20005;-75
2022/08/09 00:28:00;;;;;;;;;;;14.00;99.90;;;;;;5155126;27;19934;-74
2022/08/09 00:30:26;;;;;;;;;;;14.00;99.90;;;;;;5155031;27;20388;-73
2022/08/09 00:32:51;;;;;;;;;;;13.80;99.90;;;;;;5155241;27;19930;-77
2022/08/09 00:35:17;;;;;;;;;;;14.20;99.90;;;;;;5155139;27;19926;-75
2022/08/09 00:37:43;;;;;;;;;;;13.60;99.90;;;;;;5155074;27;20400;-74
2022/08/09 00:40:09;;;;;;;;;;;13.60;99.90;;;;;;5136616;27;19923;-76
2022/08/09 00:42:34;;;;;;;;;;;13.80;99.90;;;;;;5154893;27;19923;-77
2022/08/09 00:45:00;;;;;;;;;;;13.90;99.90;;;;;;5154993;27;19949;-75
2022/08/09 00:47:26;;;;;;;;;;;13.70;99.90;;;;;;5154903;27;19946;-74
2022/08/09 00:49:52;;;;;;;;;;;13.70;99.90;;;;;;5155226;27;20365;-75
2022/08/09 00:52:18;;;;;;;;;;;13.70;99.90;;;;;;5155033;27;19970;-74
2022/08/09 00:54:44;;;;;;;;;;;13.60;99.90;;;;;;5155112;27;19974;-77
2022/08/09 00:57:10;;;;;;;;;;;13.50;99.90;;;;;;5154833;27;20438;-75
2022/08/09 00:59:35;;;;;;;;;;;13.40;99.90;;;;;;5136536;27;19926;-74
2022/08/09 01:02:01;;;;;;;;;;;13.40;99.90;;;;;;5154709;27;20046;-74
2022/08/09 01:04:36;;;;;;;;;;;12.30;99.90;;;;;;5137298;27;19923;-74
2022/08/09 01:07:02;;;;;;;;;;;13.40;99.90;;;;;;5140409;27;20001;-75
2022/08/09 01:09:52;;;;;;;;;;;13.40;99.90;;;;;;5158570;27;20015;-76
2022/08/09 01:12:18;;;;;;;;;;;13.40;99.90;;;;;;5114782;28;20435;-74
2022/08/09 01:14:47;;;;;;;;;;;13.40;99.90;;;;;;5115056;28;19927;-75
2022/08/09 01:17:22;;;;;;;;;;;13.40;99.90;;;;;;5114917;28;19931;-75
2022/08/09 01:19:56;;;;;;;;;;;13.40;99.90;;;;;;5114693;28;19923;-75
2022/08/09 01:22:27;;;;;;;;;;;13.40;99.90;;;;;;5114803;28;19967;-75
2022/08/09 01:24:57;;;;;;;;;;;13.40;99.90;;;;;;5098020;28;19930;-75
2022/08/09 01:27:23;;;;;;;;;;;13.30;99.90;;;;;;5114707;28;20034;-74
2022/08/09 01:29:59;;;;;;;;;;;13.30;99.90;;;;;;5114664;28;19977;-75
2022/08/09 01:32:29;;;;;;;;;;;13.20;99.90;;;;;;5114621;28;19930;-74
2022/08/09 01:34:55;;;;;;;;;;;13.20;99.90;;;;;;5097375;28;20412;-76
2022/08/09 01:37:21;;;;;;;;;;;13.30;99.90;;;;;;5114448;28;19927;-74
2022/08/09 01:39:48;;;;;;;;;;;13.30;99.90;;;;;;5114391;28;19928;-75
2022/08/09 01:42:14;;;;;;;;;;;13.40;99.90;;;;;;5114274;28;19923;-77
2022/08/09 01:44:41;;;;;;;;;;;13.20;99.90;;;;;;5114361;28;19976;-74
2022/08/09 01:47:07;;;;;;;;;;;13.20;99.90;;;;;;5114403;28;19930;-75
2022/08/09 01:49:34;;;;;;;;;;;13.20;99.90;;;;;;5141205;27;20400;-77
2022/08/09 01:52:04;;;;;;;;;;;13.20;99.90;;;;;;5157724;27;19923;-76
2022/08/09 01:54:41;;;;;;;;;;;13.20;99.90;;;;;;5157556;27;19975;-73
2022/08/09 01:57:11;;;;;;;;;;;13.20;99.90;;;;;;5139592;27;19930;-75
2022/08/09 01:59:37;;;;;;;;;;;13.10;99.90;;;;;;5157621;27;19923;-74
2022/08/09 02:02:04;;;;;;;;;;;13.10;99.90;;;;;;5157632;27;19923;-74
2022/08/09 02:04:30;;;;;;;;;;;12.80;99.90;;;;;;5157449;27;19966;-74
2022/08/09 02:07:15;;;;;;;;;;;13.10;99.90;;;;;;5139176;27;20017;-75
2022/08/09 02:09:43;;;;;;;;;;;13.20;99.90;;;;;;5139001;27;19927;-76
2022/08/09 02:12:10;;;;;;;;;;;13.20;99.90;;;;;;5157395;27;19923;-75
2022/08/09 02:14:38;;;;;;;;;;;13.20;99.90;;;;;;5157146;27;20342;-74
2022/08/09 02:17:04;;;;;;;;;;;13.20;99.90;;;;;;5138098;27;19929;-74
2022/08/09 02:19:29;;;;;;;;;;;13.20;99.90;;;;;;5156960;27;19923;-74
2022/08/09 02:21:56;;;;;;;;;;;13.10;99.90;;;;;;5157090;27;19960;-76
2022/08/09 02:24:24;;;;;;;;;;;13.10;99.90;;;;;;5157216;27;19923;-74
2022/08/09 02:26:52;;;;;;;;;;;13.00;99.90;;;;;;5157136;27;19966;-75
2022/08/09 02:29:20;;;;;;;;;;;13.00;99.90;;;;;;5138867;27;19937;-74
2022/08/09 02:31:46;;;;;;;;;;;12.90;99.90;;;;;;5156787;27;20294;-75
2022/08/09 02:34:14;;;;;;;;;;;12.60;99.90;;;;;;5156744;27;20009;-75
2022/08/09 02:36:41;;;;;;;;;;;12.90;99.90;;;;;;5156858;27;19923;-74
2022/08/09 02:39:07;;;;;;;;;;;13.00;99.90;;;;;;5156946;27;19923;-74
2022/08/09 02:41:43;;;;;;;;;;;12.90;99.90;;;;;;5156736;27;20462;-74
2022/08/09 02:44:10;;;;;;;;;;;12.90;99.90;;;;;;5156621;27;19931;-74
2022/08/09 02:46:37;;;;;;;;;;;14.10;99.90;;;;;;5156621;27;19967;-74
2022/08/09 02:49:05;;;;;;;;;;;11.80;99.90;;;;;;5156505;27;20288;-75
2022/08/09 02:51:33;;;;;;;;;;;13.00;99.90;;;;;;5156672;27;20049;-74
2022/08/09 02:54:01;;;;;;;;;;;13.00;99.90;;;;;;5156615;27;19978;-74
2022/08/09 02:56:27;;;;;;;;;;;12.80;99.90;;;;;;5155605;27;19927;-75
2022/08/09 02:58:53;;;;;;;;;;;12.90;99.90;;;;;;5156403;27;19937;-76
2022/08/09 03:01:19;;;;;;;;;;;12.90;99.90;;;;;;5156248;27;20033;-75
2022/08/09 03:03:45;;;;;;;;;;;12.90;99.90;;;;;;5156224;27;19985;-75
2022/08/09 03:06:13;;;;;;;;;;;12.80;99.90;;;;;;5156438;27;20413;-75
2022/08/09 03:08:42;;;;;;;;;;;12.90;99.90;;;;;;5156312;27;19923;-74
2022/08/09 03:11:08;;;;;;;;;;;12.80;99.90;;;;;;5156204;27;19923;-74
2022/08/09 03:13:35;;;;;;;;;;;12.70;99.90;;;;;;5156007;27;19946;-77
2022/08/09 03:16:01;;;;;;;;;;;12.70;99.90;;;;;;5156087;27;19970;-75
2022/08/09 03:18:26;;;;;;;;;;;12.60;99.90;;;;;;5137722;27;19923;-74
2022/08/09 03:20:52;;;;;;;;;;;12.60;99.90;;;;;;5137583;27;20403;-75
2022/08/09 03:23:18;;;;;;;;;;;12.80;99.90;;;;;;5156111;27;19974;-75
2022/08/09 03:25:45;;;;;;;;;;;12.70;99.90;;;;;;5155985;27;19930;-75
2022/08/09 03:28:10;;;;;;;;;;;12.70;99.90;;;;;;5155818;27;19941;-77
2022/08/09 03:30:36;;;;;;;;;;;12.70;99.90;;;;;;5155896;27;20344;-74
2022/08/09 03:33:06;;;;;;;;;;;12.80;99.90;;;;;;5155714;27;20293;-74
2022/08/09 03:35:32;;;;;;;;;;;12.80;99.90;;;;;;5155867;27;19931;-77
2022/08/09 03:37:57;;;;;;;;;;;12.80;99.90;;;;;;5155821;27;19930;-74
2022/08/09 03:40:23;;;;;;;;;;;12.90;99.90;;;;;;5155720;27;19923;-75
2022/08/09 03:42:48;;;;;;;;;;;12.80;99.90;;;;;;5155706;27;19926;-75
2022/08/09 03:45:14;;;;;;;;;;;12.80;99.90;;;;;;5155628;27;19931;-77
2022/08/09 03:47:39;;;;;;;;;;;12.70;99.90;;;;;;5155528;27;20009;-74
2022/08/09 03:50:07;;;;;;;;;;;12.60;99.90;;;;;;5137159;27;19926;-76
2022/08/09 03:52:34;;;;;;;;;;;12.60;99.90;;;;;;5155661;27;19985;-75
2022/08/09 03:55:01;;;;;;;;;;;12.60;99.90;;;;;;5155525;27;19923;-74
2022/08/09 03:57:28;;;;;;;;;;;12.80;99.90;;;;;;5155541;27;19974;-74
2022/08/09 03:59:53;;;;;;;;;;;12.70;99.90;;;;;;5155350;27;19923;-78
2022/08/09 04:02:20;;;;;;;;;;;12.80;99.90;;;;;;5137098;27;20059;-73
2022/08/09 04:04:46;;;;;;;;;;;12.80;99.90;;;;;;5136981;27;20289;-75
2022/08/09 04:07:12;;;;;;;;;;;12.80;99.90;;;;;;5155472;27;19923;-74
2022/08/09 04:09:37;;;;;;;;;;;12.80;99.90;;;;;;5171704;27;19923;-74
2022/08/09 04:12:09;;;;;;;;;;;12.70;99.90;;;;;;5155241;27;20315;-76
2022/08/09 04:14:34;;;;;;;;;;;12.70;99.90;;;;;;5155203;27;20400;-73
2022/08/09 04:17:00;;;;;;;;;;;12.60;99.90;;;;;;5137057;27;19923;-74
2022/08/09 04:19:26;;;;;;;;;;;12.40;99.90;;;;;;5155056;27;19937;-74
2022/08/09 04:21:51;;;;;;;;;;;12.30;99.90;;;;;;5155285;27;19923;-77
2022/08/09 04:24:17;;;;;;;;;;;12.30;99.90;;;;;;5171510;27;19923;-76
2022/08/09 04:26:42;;;;;;;;;;;12.60;99.90;;;;;;5171464;27;19985;-74
2022/08/09 04:29:08;;;;;;;;;;;12.20;99.90;;;;;;5155146;27;19924;-74
2022/08/09 04:31:34;;;;;;;;;;;12.10;99.90;;;;;;5155056;27;19976;-76
2022/08/09 04:33:59;;;;;;;;;;;12.10;99.90;;;;;;5155003;27;19975;-75
2022/08/09 04:36:26;;;;;;;;;;;12.00;99.90;;;;;;5155175;27;20373;-74
2022/08/09 04:38:52;;;;;;;;;;;12.10;99.90;;;;;;5155088;27;19930;-74
2022/08/09 04:41:18;;;;;;;;;;;12.30;99.90;;;;;;5159134;27;19923;-76
2022/08/09 04:43:44;;;;;;;;;;;12.10;99.90;;;;;;5159080;27;20254;-74
2022/08/09 04:46:11;;;;;;;;;;;12.20;99.90;;;;;;5158235;27;21285;-75
2022/08/09 04:48:37;;;;;;;;;;;12.20;99.90;;;;;;5175089;27;19923;-75
2022/08/09 04:51:03;;;;;;;;;;;12.20;99.90;;;;;;5158695;27;19970;-75
2022/08/09 04:53:29;;;;;;;;;;;12.20;99.90;;;;;;5159093;27;20301;-73
2022/08/09 04:55:54;;;;;;;;;;;12.50;99.90;;;;;;5140451;27;19923;-73
2022/08/09 04:58:20;;;;;;;;;;;12.30;99.90;;;;;;5140653;27;20001;-75
2022/08/09 05:00:45;;;;;;;;;;;12.40;99.90;;;;;;5158727;27;19930;-75
2022/08/09 05:03:11;;;;;;;;;;;12.40;99.90;;;;;;5140126;27;20312;-75
2022/08/09 05:05:37;;;;;;;;;;;12.40;99.90;;;;;;5174251;27;19967;-74
2022/08/09 05:08:02;;;;;;;;;;;13.00;99.90;;;;;;5174961;27;19923;-74
2022/08/09 05:10:28;;;;;;;;;;;12.50;99.90;;;;;;5140206;27;19923;-75
2022/08/09 05:12:54;;;;;;;;;;;12.50;99.90;;;;;;5158399;27;19923;-75
2022/08/09 05:15:20;;;;;;;;;;;12.50;99.90;;;;;;5158447;27;19930;-76
2022/08/09 05:17:45;;;;;;;;;;;12.60;99.90;;;;;;5158393;27;19929;-75
2022/08/09 05:20:11;;;;;;;;;;;12.70;99.90;;;;;;5158052;27;19927;-74
2022/08/09 05:22:37;;;;;;;;;;;12.70;99.90;;;;;;5158552;27;19927;-73
2022/08/09 05:25:03;;;;;;;;;;;12.70;99.90;;;;;;5158427;27;19923;-74
2022/08/09 05:27:29;;;;;;;;;;;12.80;99.90;;;;;;5158354;27;20305;-74
2022/08/09 05:29:54;;;;;;;;;;;12.80;99.90;;;;;;5139788;27;19952;-74
2022/08/09 05:32:20;;;;;;;;;;;12.80;99.90;;;;;;5158121;27;19923;-74
2022/08/09 05:34:45;;;;;;;;;;;13.60;99.90;;;;;;5157824;27;20464;-74
2022/08/09 05:37:11;;;;;;;;;;;13.10;99.90;;;;;;5157882;27;20562;-75
2022/08/09 05:39:38;;;;;;;;;;;13.00;99.90;;;;;;5158036;27;19967;-75
2022/08/09 05:42:03;;;;;;;;;;;13.10;99.90;;;;;;5157907;27;19930;-74
2022/08/09 05:44:29;;;;;;;;;;;13.20;99.90;;;;;;5174417;27;19923;-75
2022/08/09 05:46:55;;;;;;;;;;;13.30;99.90;;;;;;5157874;27;19923;-75
2022/08/09 05:49:20;;;;;;;;;;;13.40;99.90;;;;;;5157816;27;20060;-73
2022/08/09 05:51:46;;;;;;;;;;;13.50;99.90;;;;;;5138002;27;19923;-75
2022/08/09 05:54:11;;;;;;;;;;;13.60;99.90;;;;;;5157952;27;20281;-76
2022/08/09 05:56:37;;;;;;;;;;;12.70;99.90;;;;;;5157779;27;19923;-74
2022/08/09 05:59:03;;;;;;;;;;;13.80;99.90;;;;;;5157698;27;19923;-74
2022/08/09 06:01:29;;;;;;;;;;;13.90;99.90;;;;;;5138981;27;20012;-72
2022/08/09 06:03:55;;;;;;;;;;;14.00;99.90;;;;;;5157519;27;19951;-74
2022/08/09 06:06:21;;;;;;;;;;;14.10;99.90;;;;;;5157310;27;20452;-74
2022/08/09 06:08:47;;;;;;;;;;;14.20;99.90;;;;;;5157269;27;19985;-74
2022/08/09 06:11:12;;;;;;;;;;;14.30;99.90;;;;;;5157483;27;19970;-76
2022/08/09 06:13:38;;;;;;;;;;;14.40;99.90;;;;;;5173642;27;19931;-74
2022/08/09 06:16:04;;;;;;;;;;;14.50;99.90;;;;;;5157309;27;19970;-74
2022/08/09 06:18:29;;;;;;;;;;;14.60;99.90;;;;;;5157131;27;19923;-74
2022/08/09 06:20:55;;;;;;;;;;;13.80;99.90;;;;;;5157027;27;19977;-74
2022/08/09 06:23:21;;;;;;;;;;;14.80;99.90;;;;;;5157058;27;20294;-73
2022/08/09 06:25:48;;;;;;;;;;;14.90;99.90;;;;;;5156056;27;19923;-74
2022/08/09 06:28:13;;;;;;;;;;;15.00;99.90;;;;;;5138957;27;19923;-74
2022/08/09 06:30:39;;;;;;;;;;;15.00;99.90;;;;;;5157020;27;20365;-74
2022/08/09 06:33:04;;;;;;;;;;;15.10;99.90;;;;;;5138715;27;20370;-75
2022/08/09 06:35:30;;;;;;;;;;;15.20;99.90;;;;;;5156373;27;19923;-74
2022/08/09 06:37:55;;;;;;;;;;;15.30;99.90;;;;;;5156587;27;19975;-74
2022/08/09 06:40:22;;;;;;;;;;;15.30;99.90;;;;;;5157033;27;19987;-74
2022/08/09 06:42:47;;;;;;;;;;;15.40;99.90;;;;;;5138185;27;20342;-75
2022/08/09 06:45:13;;;;;;;;;;;15.50;99.90;;;;;;5156760;27;19955;-74
2022/08/09 06:47:38;;;;;;;;;;;15.60;99.90;;;;;;5156712;27;19923;-74
2022/08/09 06:50:05;;;;;;;;;;;15.60;99.90;;;;;;5172184;27;20010;-74
2022/08/09 06:52:30;;;;;;;;;;;15.70;99.90;;;;;;5156428;27;19934;-75
2022/08/09 06:54:56;;;;;;;;;;;15.80;99.90;;;;;;5155188;27;19923;-74
2022/08/09 06:57:21;;;;;;;;;;;16.00;99.90;;;;;;5156526;27;19923;-74
2022/08/09 06:59:47;;;;;;;;;;;16.10;99.90;;;;;;5156426;27;19923;-74
2022/08/09 07:02:13;;;;;;;;;;;16.20;99.90;;;;;;5155852;27;19930;-74
2022/08/09 07:04:38;;;;;;;;;;;16.30;99.90;;;;;;5137938;27;20056;-74
2022/08/09 07:07:04;;;;;;;;;;;16.30;99.90;;;;;;5156315;27;20382;-73
2022/08/09 07:09:29;;;;;;;;;;;16.40;99.90;;;;;;5156095;27;19975;-73
2022/08/09 07:11:55;;;;;;;;;;;16.60;99.90;;;;;;5156103;27;19923;-74
2022/08/09 07:14:20;;;;;;;;;;;16.80;99.90;;;;;;5138035;27;19927;-75
2022/08/09 07:16:46;;;;;;;;;;;16.70;99.90;;;;;;5156088;27;19929;-76
2022/08/09 07:19:12;;;;;;;;;;;16.80;99.90;;;;;;5172447;27;19930;-75
2022/08/09 07:21:38;;;;;;;;;;;16.90;99.90;;;;;;5171642;27;19974;-75
2022/08/09 07:24:04;;;;;;;;;;;16.90;99.90;;;;;;5155887;27;19962;-74
2022/08/09 07:26:29;;;;;;;;;;;17.00;99.90;;;;;;5155918;27;20449;-74
2022/08/09 07:28:55;;;;;;;;;;;17.10;99.90;;;;;;5155998;27;19923;-74
2022/08/09 07:31:20;;;;;;;;;;;17.10;99.90;;;;;;5155886;27;19927;-74
2022/08/09 07:33:46;;;;;;;;;;;17.30;99.90;;;;;;5155849;27;20096;-74
2022/08/09 07:36:13;;;;;;;;;;;17.40;99.90;;;;;;5155644;27;19930;-74
2022/08/09 07:38:39;;;;;;;;;;;17.40;99.90;;;;;;5155547;27;19923;-75
2022/08/09 07:41:04;;;;;;;;;;;17.50;99.90;;;;;;5155569;27;20259;-73
2022/08/09 07:43:30;;;;;;;;;;;17.60;99.90;;;;;;5155781;27;19930;-73
2022/08/09 07:45:56;;;;;;;;;;;17.60;99.90;;;;;;5155890;27;19929;-75
2022/08/09 07:48:22;;;;;;;;;;;17.70;99.90;;;;;;5155642;27;19946;-74
2022/08/09 07:50:48;;;;;;;;;;;17.80;99.90;;;;;;5155555;27;20381;-76
2022/08/09 07:53:14;;;;;;;;;;;17.80;99.90;;;;;;5155510;27;20395;-74
2022/08/09 07:55:39;;;;;;;;;;;17.90;99.90;;;;;;5155185;27;19970;-74
2022/08/09 07:58:05;;;;;;;;;;;17.90;99.90;;;;;;5155649;27;20029;-75
2022/08/09 08:00:31;;;;;;;;;;;17.90;99.90;;;;;;5137073;27;20338;-75
2022/08/09 08:02:57;;;;;;;;;;;17.90;99.90;;;;;;5155473;27;19923;-74
2022/08/09 08:05:22;;;;;;;;;;;17.90;99.90;;;;;;5155375;27;19923;-75
2022/08/09 08:07:48;;;;;;;;;;;18.10;99.90;;;;;;5155471;27;19923;-74
2022/08/09 08:10:13;;;;;;;;;;;18.10;99.90;;;;;;5137098;27;20364;-75
2022/08/09 08:12:41;;;;;;;;;;;18.20;99.90;;;;;;5136971;27;19927;-73
2022/08/09 08:15:07;;;;;;;;;;;18.20;99.90;;;;;;5157585;27;19923;-75
2022/08/09 08:17:33;;;;;;;;;;;18.30;99.90;;;;;;5141465;27;20058;-74
2022/08/09 08:19:59;;;;;;;;;;;18.30;99.90;;;;;;5159262;27;19978;-75
2022/08/09 08:22:25;;;;;;;;;;;18.40;99.90;;;;;;5159484;27;19923;-76
2022/08/09 08:24:54;;;;;;;;;;;18.50;99.90;;;;;;5159374;27;19927;-76
2022/08/09 08:27:23;;;;;;;;;;;18.50;99.90;;;;;;5159590;27;20009;-75
2022/08/09 08:29:49;;;;;;;;;;;18.50;99.90;;;;;;5159511;27;19922;-74
2022/08/09 08:32:15;;;;;;;;;;;18.60;99.90;;;;;;5159333;27;20278;-76
2022/08/09 08:34:41;;;;;;;;;;;18.70;99.90;;;;;;5159413;27;19927;-75
2022/08/09 08:37:06;;;;;;;;;;;18.70;99.90;;;;;;5159109;27;19924;-76
2022/08/09 08:39:32;;;;;;;;;;;18.80;99.90;;;;;;5159088;27;19930;-75
2022/08/09 08:41:57;;;;;;;;;;;18.90;99.90;;;;;;5158905;27;19930;-75
2022/08/09 08:44:24;;;;;;;;;;;18.90;99.90;;;;;;5159166;27;20434;-76
2022/08/09 08:46:50;;;;;;;;;;;19.00;99.90;;;;;;5159144;27;19923;-75
2022/08/09 08:49:16;;;;;;;;;;;18.60;99.90;;;;;;5159160;27;19934;-74
2022/08/09 08:51:42;;;;;;;;;;;19.20;99.90;;;;;;5158892;27;19972;-75
2022/08/09 08:54:07;;;;;;;;;;;19.20;99.90;;;;;;5158884;27;19927;-75
2022/08/09 08:56:37;;;;;;;;;;;19.20;99.90;;;;;;5158770;27;19968;-74
2022/08/09 08:59:07;;;;;;;;;;;19.20;99.90;;;;;;5158923;27;20026;-75
2022/08/09 09:01:36;;;;;;;;;;;19.60;99.90;;;;;;5158631;27;19923;-75
2022/08/09 09:04:02;;;;;;;;;;;19.30;99.90;;;;;;5158743;27;20025;-75
2022/08/09 09:06:30;;;;;;;;;;;19.30;99.90;;;;;;5158815;27;20273;-75
2022/08/09 09:08:56;;;;;;;;;;;19.30;99.90;;;;;;5158477;27;19981;-75
2022/08/09 09:11:21;;;;;;;;;;;19.30;99.90;;;;;;5158448;27;19970;-75
2022/08/09 09:13:49;;;;;;;;;;;19.30;99.90;;;;;;5140087;27;20362;-76
2022/08/09 09:16:14;;;;;;;;;;;19.40;99.90;;;;;;5140034;27;19931;-76
2022/08/09 09:18:40;;;;;;;;;;;19.50;99.90;;;;;;5140208;27;20002;-75
2022/08/09 09:21:06;;;;;;;;;;;19.60;99.90;;;;;;5158158;27;19975;-74
2022/08/09 09:23:41;;;;;;;;;;;19.60;99.90;;;;;;5156450;27;19923;-74
2022/08/09 09:26:07;;;;;;;;;;;19.70;99.90;;;;;;5141616;27;20015;-75
2022/08/09 09:28:33;;;;;;;;;;;19.70;99.90;;;;;;5137390;27;19966;-75
2022/08/09 09:31:00;;;;;;;;;;;19.70;99.90;;;;;;5137572;27;19924;-75
2022/08/09 09:33:33;;;;;;;;;;;19.80;99.90;;;;;;5137473;27;19981;-75
2022/08/09 09:36:03;;;;;;;;;;;19.80;99.90;;;;;;5137201;27;19923;-74
2022/08/09 09:38:46;;;;;;;;;;;19.80;99.90;;;;;;5137297;27;19923;-74
2022/08/09 09:41:27;;;;;;;;;;;20.00;99.90;;;;;;5137325;27;19987;-75
2022/08/09 09:43:53;;;;;;;;;;;20.10;99.90;;;;;;5137248;27;19946;-74
2022/08/09 09:46:18;;;;;;;;;;;20.10;99.90;;;;;;5137097;27;20386;-75
2022/08/09 09:49:00;;;;;;;;;;;20.20;99.90;;;;;;5153156;27;19923;-74
2022/08/09 09:51:28;;;;;;;;;;;20.20;99.90;;;;;;5137153;27;20366;-74
2022/08/09 09:54:06;;;;;;;;;;;20.30;99.90;;;;;;5137062;27;20026;-76
2022/08/09 09:56:32;;;;;;;;;;;20.30;99.90;;;;;;5136947;27;20060;-75
2022/08/09 09:58:58;;;;;;;;;;;20.40;99.90;;;;;;5136917;27;20006;-76
2022/08/09 10:01:24;;;;;;;;;;;20.50;99.90;;;;;;5136774;27;19970;-75
2022/08/09 10:03:51;;;;;;;;;;;20.50;99.90;;;;;;5136685;27;20422;-74
2022/08/09 10:06:16;;;;;;;;;;;20.60;99.90;;;;;;5136885;27;20282;-75
2022/08/09 10:08:43;;;;;;;;;;;20.60;99.90;;;;;;5136752;27;19924;-75
2022/08/09 10:11:19;;;;;;;;;;;20.70;99.90;;;;;;5136713;27;19931;-76
2022/08/09 10:13:44;;;;;;;;;;;20.80;99.90;;;;;;5136488;27;20301;-76
2022/08/09 10:16:10;;;;;;;;;;;20.90;99.90;;;;;;5136523;27;19929;-74
2022/08/09 10:18:36;;;;;;;;;;;20.90;99.90;;;;;;5136506;27;20290;-75
2022/08/09 10:21:08;;;;;;;;;;;21.00;99.90;;;;;;5136442;27;20434;-74
2022/08/09 10:23:35;;;;;;;;;;;21.00;99.90;;;;;;5151875;27;19968;-74
2022/08/09 10:26:01;;;;;;;;;;;21.00;99.90;;;;;;5136333;27;19931;-75
2022/08/09 10:28:28;;;;;;;;;;;21.10;99.90;;;;;;5136306;27;19924;-76
2022/08/09 10:30:53;;;;;;;;;;;21.10;99.90;;;;;;5136170;27;19923;-76
2022/08/09 10:33:19;;;;;;;;;;;21.10;99.90;;;;;;5136066;27;19930;-76
2022/08/09 10:35:45;;;;;;;;;;;21.10;99.90;;;;;;5136259;27;19923;-75
2022/08/09 10:38:11;;;;;;;;;;;21.20;99.90;;;;;;5135388;27;19971;-75
2022/08/09 10:40:37;;;;;;;;;;;21.20;99.90;;;;;;5152201;27;19949;-74
2022/08/09 10:43:03;;;;;;;;;;;21.20;99.90;;;;;;5118016;27;20019;-75
2022/08/09 10:45:30;;;;;;;;;;;21.20;99.90;;;;;;5135836;27;19924;-74
2022/08/09 10:47:59;;;;;;;;;;;21.20;99.90;;;;;;5135703;27;20374;-74
2022/08/09 10:51:05;;;;;;;;;;;21.30;99.90;;;;;;5136013;27;19923;-73
2022/08/09 10:53:26;;;;;;;;;;;21.30;99.90;;;;;;5135953;27;19924;-76
2022/08/09 10:56:11;;;;;;;;;;;21.30;99.90;;;;;;5117606;27;19928;-76
2022/08/09 10:58:37;;;;;;;;;;;21.30;99.90;;;;;;5135842;27;20305;-77
2022/08/09 11:01:03;;;;;;;;;;;21.30;99.90;;;;;;5135658;27;19930;-75
2022/08/09 11:03:28;;;;;;;;;;;21.30;99.90;;;;;;5135728;27;19989;-74
2022/08/09 11:06:12;;;;;;;;;;;21.30;99.90;;;;;;5135297;27;20435;-75
2022/08/09 11:08:39;;;;;;;;;;;21.30;99.90;;;;;;5117332;27;19975;-75
2022/08/09 11:11:05;;;;;;;;;;;21.40;99.90;;;;;;5134210;27;20295;-75
2022/08/09 11:13:30;;;;;;;;;;;21.40;99.90;;;;;;5135553;27;19976;-76
2022/08/09 11:16:15;;;;;;;;;;;21.40;99.90;;;;;;5116973;27;20022;-74
2022/08/09 11:18:41;;;;;;;;;;;21.40;99.90;;;;;;5135439;27;19924;-75
2022/08/09 11:21:06;;;;;;;;;;;21.20;99.90;;;;;;5116848;27;19923;-75
2022/08/09 11:23:52;;;;;;;;;;;21.40;99.90;;;;;;5135148;27;19923;-75
2022/08/09 11:26:36;;;;;;;;;;;21.50;99.90;;;;;;5135290;27;19930;-75
2022/08/09 11:29:03;;;;;;;;;;;21.50;99.90;;;;;;5116574;27;19949;-75
2022/08/09 11:31:48;;;;;;;;;;;21.50;99.90;;;;;;5135021;27;19923;-75
2022/08/09 11:34:26;;;;;;;;;;;21.60;99.90;;;;;;5134420;27;19962;-76
2022/08/09 11:36:53;;;;;;;;;;;21.60;99.90;;;;;;5135010;27;20400;-76
2022/08/09 11:39:19;;;;;;;;;;;21.60;99.90;;;;;;5141567;27;20006;-76
2022/08/09 11:41:44;;;;;;;;;;;21.70;99.90;;;;;;5155511;27;20010;-78
2022/08/09 11:44:13;;;;;;;;;;;21.70;99.90;;;;;;5170682;27;19927;-76
2022/08/09 11:46:52;;;;;;;;;;;21.70;99.90;;;;;;5155451;27;19946;-77
2022/08/09 11:49:18;;;;;;;;;;;21.70;99.90;;;;;;5155673;27;19937;-76
2022/08/09 11:52:02;;;;;;;;;;;21.60;99.90;;;;;;5155435;27;19942;-76
2022/08/09 11:54:28;;;;;;;;;;;21.80;99.90;;;;;;5155472;27;19924;-76
2022/08/09 11:56:53;;;;;;;;;;;21.80;99.90;;;;;;5152765;27;19923;-77
2022/08/09 11:59:23;;;;;;;;;;;21.80;99.90;;;;;;5154465;27;20005;-77
2022/08/09 12:01:48;;;;;;;;;;;21.80;99.90;;;;;;5155331;27;19923;-76
2022/08/09 12:04:14;;;;;;;;;;;21.90;99.90;;;;;;5155517;27;19930;-75
2022/08/09 12:06:48;;;;;;;;;;;21.90;99.90;;;;;;5137092;27;19924;-75
2022/08/09 12:09:14;;;;;;;;;;;21.80;99.90;;;;;;5149695;27;19923;-75
2022/08/09 12:11:40;;;;;;;;;;;21.90;99.90;;;;;;5171311;27;19975;-76
2022/08/09 12:14:07;;;;;;;;;;;21.90;99.90;;;;;;5155575;27;19923;-75
2022/08/09 12:16:36;;;;;;;;;;;21.90;99.90;;;;;;5159167;27;20404;-76
2022/08/09 12:19:04;;;;;;;;;;;22.00;99.90;;;;;;5171360;27;19923;-75
2022/08/09 12:21:37;;;;;;;;;;;22.00;99.90;;;;;;5155075;27;19924;-75
2022/08/09 12:24:04;;;;;;;;;;;22.10;99.90;;;;;;5155476;27;19930;-76
2022/08/09 12:26:40;;;;;;;;;;;22.10;99.90;;;;;;5156202;27;19969;-75
2022/08/09 12:29:06;;;;;;;;;;;22.10;99.90;;;;;;5153871;27;20007;-75
2022/08/09 12:31:34;;;;;;;;;;;22.20;99.90;;;;;;5155175;27;20339;-77
2022/08/09 12:34:00;;;;;;;;;;;22.20;99.90;;;;;;5153126;27;19922;-75
2022/08/09 12:36:25;;;;;;;;;;;22.30;99.90;;;;;;5134043;27;19924;-75
2022/08/09 12:38:51;;;;;;;;;;;22.30;99.90;;;;;;5148189;27;19934;-75
2022/08/09 12:41:29;;;;;;;;;;;22.30;99.90;;;;;;5146286;27;19984;-76
2022/08/09 12:43:56;;;;;;;;;;;22.30;99.90;;;;;;5117982;27;19967;-75
2022/08/09 12:46:22;;;;;;;;;;;22.30;99.90;;;;;;5144994;27;19927;-75
2022/08/09 12:48:48;;;;;;;;;;;22.30;99.90;;;;;;5149464;27;19930;-76
2022/08/09 12:51:16;;;;;;;;;;;22.30;99.90;;;;;;5125392;27;19924;-76
2022/08/09 12:53:42;;;;;;;;;;;22.30;99.90;;;;;;5134045;28;19978;-76
2022/08/09 12:56:12;;;;;;;;;;;22.40;99.90;;;;;;5134179;28;19931;-76
2022/08/09 12:58:39;;;;;;;;;;;22.60;99.90;;;;;;5134425;28;19923;-74
2022/08/09 13:01:21;;;;;;;;;;;22.50;99.90;;;;;;5137027;27;19930;-75
2022/08/09 13:03:56;;;;;;;;;;;22.50;99.90;;;;;;5137664;27;19931;-77
2022/08/09 13:06:26;;;;;;;;;;;22.50;99.90;;;;;;5153577;27;19934;-75
2022/08/09 13:09:01;;;;;;;;;;;22.50;99.90;;;;;;5138943;27;20446;-74
2022/08/09 13:11:27;;;;;;;;;;;22.50;99.90;;;;;;5138014;27;19927;-76
2022/08/09 13:13:56;;;;;;;;;;;22.50;99.90;;;;;;5141349;27;19923;-75
2022/08/09 13:16:36;;;;;;;;;;;22.50;99.90;;;;;;5158473;27;19923;-76
2022/08/09 13:19:01;;;;;;;;;;;22.50;99.90;;;;;;5151781;27;19971;-76
2022/08/09 13:21:28;;;;;;;;;;;22.50;99.90;;;;;;5173053;27;19977;-75
2022/08/09 13:23:58;;;;;;;;;;;22.60;99.90;;;;;;5135862;27;19932;-76
2022/08/09 13:26:45;;;;;;;;;;;22.60;99.90;;;;;;5157844;27;20423;-76
2022/08/09 13:29:12;;;;;;;;;;;22.60;99.90;;;;;;5157910;27;19929;-76
2022/08/09 13:31:53;;;;;;;;;;;22.70;99.90;;;;;;5127543;27;19923;-75
2022/08/09 13:34:19;;;;;;;;;;;22.70;99.90;;;;;;5160712;27;19923;-76
2022/08/09 13:36:44;;;;;;;;;;;22.70;99.90;;;;;;5157592;27;20292;-75
2022/08/09 13:39:11;;;;;;;;;;;22.70;99.90;;;;;;5158014;27;19968;-74
2022/08/09 13:41:37;;;;;;;;;;;22.70;99.90;;;;;;5157762;27;19924;-76
2022/08/09 13:44:03;;;;;;;;;;;22.70;99.90;;;;;;5155255;27;20018;-76
2022/08/09 13:46:29;;;;;;;;;;;22.70;99.90;;;;;;5129929;27;20006;-75
2022/08/09 13:48:54;;;;;;;;;;;22.80;99.90;;;;;;5136827;27;20346;-76
2022/08/09 13:51:21;;;;;;;;;;;22.70;99.90;;;;;;5145575;27;19931;-78
2022/08/09 13:53:46;;;;;;;;;;;22.80;99.90;;;;;;5137512;27;20306;-77
2022/08/09 13:56:12;;;;;;;;;;;22.80;99.90;;;;;;5142346;27;19923;-77
2022/08/09 13:58:38;;;;;;;;;;;22.80;99.90;;;;;;5139442;27;19930;-76
2022/08/09 14:01:04;;;;;;;;;;;22.80;99.90;;;;;;5172711;27;20003;-77
2022/08/09 14:03:29;;;;;;;;;;;22.80;99.90;;;;;;5157809;27;19923;-76
2022/08/09 14:05:57;;;;;;;;;;;22.90;99.90;;;;;;5157562;27;19930;-76
2022/08/09 14:08:24;;;;;;;;;;;22.90;99.90;;;;;;5156266;27;19946;-76
2022/08/09 14:10:50;;;;;;;;;;;22.90;99.90;;;;;;5157436;27;19970;-77
2022/08/09 14:13:15;;;;;;;;;;;22.90;99.90;;;;;;5155119;27;19934;-77
2022/08/09 14:15:41;;;;;;;;;;;23.00;99.90;;;;;;5157400;27;20015;-78
2022/08/09 14:18:07;;;;;;;;;;;23.00;99.90;;;;;;5157188;27;19923;-77